Junction City, Wisconsin
Current Conditions -  °F | °C
As of 5:15 AM on Thursday 23 Oct 2014 (Local Time) from KSTE Reporting Station
Overcast Overcast  
Wind Chill: 39°   Ceiling: 4200
Heat Index: 39°   Visibility: 10mi
Dew Point: 36°   Wind: 3mph
Humidity: 89%   Direction: 160°SSE
Pressure: 30.15"   Gusts: NA
Location:  44.59°N, 89.77°W
Report Text: KSTE 231015Z AUTO 16003KT 10SM BKN042 OVC065 04/02 A3015 RMK AO2 T00370020
Loading
Personal Weather Stations






























Interactive Weather Map
Tropical Storm Tracking
New forecast layout! Learn more

10-Day Weather Forecast

Advertisements
Track Severe Weather on mobile